createdAt,value
2022-09-03T00:00:03.294Z,12.74
2022-09-03T00:01:03.265Z,12.75
2022-09-03T00:02:03.340Z,12.77
2022-09-03T00:03:03.306Z,12.82
2022-09-03T00:04:03.292Z,12.85
2022-09-03T00:05:03.389Z,12.87
2022-09-03T00:06:03.231Z,12.88
2022-09-03T00:07:03.404Z,12.89
2022-09-03T00:08:03.351Z,12.92
2022-09-03T00:09:03.301Z,12.93
2022-09-03T00:10:03.197Z,12.95
2022-09-03T00:11:03.204Z,12.95
2022-09-03T00:12:03.163Z,12.93
2022-09-03T00:13:03.163Z,12.95
2022-09-03T00:14:03.189Z,12.97
2022-09-03T00:15:03.173Z,12.97
2022-09-03T00:16:03.305Z,12.97
2022-09-03T00:17:03.118Z,13.00
2022-09-03T00:18:03.292Z,13.03
2022-09-03T00:19:03.257Z,13.06
2022-09-03T00:20:03.104Z,13.07
2022-09-03T00:21:03.078Z,13.07
2022-09-03T00:22:03.098Z,13.07
2022-09-03T00:23:03.118Z,13.06
2022-09-03T00:24:03.057Z,13.04
2022-09-03T00:25:03.182Z,13.04
2022-09-03T00:26:03.067Z,13.07
2022-09-03T00:27:03.037Z,13.06
2022-09-03T00:28:03.044Z,13.11
2022-09-03T00:29:03.034Z,13.07
2022-09-03T00:30:03.015Z,13.12
2022-09-03T00:31:03.046Z,13.14
2022-09-03T00:32:02.988Z,13.15
2022-09-03T00:33:02.987Z,13.17
2022-09-03T00:34:03.177Z,13.17
2022-09-03T00:35:02.971Z,13.18
2022-09-03T00:36:03.067Z,13.15
2022-09-03T00:37:03.066Z,13.14
2022-09-03T00:38:02.932Z,13.15
2022-09-03T00:39:02.945Z,13.14
2022-09-03T00:40:03.013Z,13.17
2022-09-03T00:41:03.014Z,13.21
2022-09-03T00:42:02.912Z,13.24
2022-09-03T00:43:02.877Z,13.25
2022-09-03T00:44:02.883Z,13.22
2022-09-03T00:45:02.869Z,13.21
2022-09-03T00:46:02.938Z,13.21
2022-09-03T00:47:02.842Z,13.22
2022-09-03T00:48:02.944Z,13.22
2022-09-03T00:49:02.839Z,13.24
2022-09-03T00:50:02.967Z,13.24
2022-09-03T00:51:02.809Z,13.22
2022-09-03T00:52:02.811Z,13.22
2022-09-03T00:53:02.809Z,13.24
2022-09-03T00:54:02.785Z,13.24
2022-09-03T00:55:03.067Z,13.24
2022-09-03T00:56:02.912Z,13.27
2022-09-03T00:57:02.759Z,13.27
2022-09-03T00:58:02.783Z,13.29
2022-09-03T00:59:02.737Z,13.29
2022-09-03T01:00:02.735Z,13.30
2022-09-03T01:01:02.722Z,13.29
2022-09-03T01:02:02.869Z,13.32
2022-09-03T01:03:02.702Z,13.32
2022-09-03T01:04:02.896Z,13.32
2022-09-03T01:05:02.687Z,13.36
2022-09-03T01:06:02.691Z,13.33
2022-09-03T01:07:02.675Z,13.33
2022-09-03T01:08:02.686Z,13.37
2022-09-03T01:09:02.745Z,13.37
2022-09-03T01:10:02.664Z,13.40
2022-09-03T01:11:02.784Z,13.40
2022-09-03T01:12:02.639Z,13.43
2022-09-03T01:13:02.632Z,13.41
2022-09-03T01:14:02.615Z,13.41
2022-09-03T01:15:02.623Z,13.41
2022-09-03T01:16:02.850Z,13.41
2022-09-03T01:17:02.582Z,13.43
2022-09-03T01:18:02.588Z,13.41
2022-09-03T01:19:02.586Z,13.44
2022-09-03T01:20:02.578Z,13.43
2022-09-03T01:21:02.547Z,13.44
2022-09-03T01:22:02.553Z,13.47
2022-09-03T01:23:02.548Z,13.47
2022-09-03T01:24:02.532Z,13.47
2022-09-03T01:25:02.547Z,13.49
2022-09-03T01:26:02.505Z,13.47
2022-09-03T01:27:02.499Z,13.47
2022-09-03T01:28:02.546Z,13.49
2022-09-03T01:29:02.496Z,13.52
2022-09-03T01:30:02.623Z,13.52
2022-09-03T01:31:02.542Z,13.51
2022-09-03T01:32:02.460Z,13.47
2022-09-03T01:33:02.444Z,13.52
2022-09-03T01:34:02.438Z,13.51
2022-09-03T01:35:02.427Z,13.49
2022-09-03T01:36:02.433Z,13.43
2022-09-03T01:37:02.438Z,13.37
2022-09-03T01:38:02.410Z,13.32
2022-09-03T01:39:02.396Z,13.27
2022-09-03T01:40:02.475Z,13.24
2022-09-03T01:41:02.399Z,13.22
2022-09-03T01:42:02.493Z,13.24
2022-09-03T01:43:02.368Z,13.27
2022-09-03T01:44:02.364Z,13.29
2022-09-03T01:45:02.341Z,13.30
2022-09-03T01:46:02.426Z,13.29
2022-09-03T01:47:02.353Z,13.27
2022-09-03T01:48:02.313Z,13.24
2022-09-03T01:49:02.323Z,13.22
2022-09-03T01:50:02.315Z,13.21
2022-09-03T01:51:02.308Z,13.18
2022-09-03T01:52:02.394Z,13.18
2022-09-03T01:53:02.277Z,13.18
2022-09-03T01:54:02.284Z,13.21
2022-09-03T01:55:02.277Z,13.22
2022-09-03T01:56:02.242Z,13.25
2022-09-03T01:57:02.245Z,13.24
2022-09-03T01:58:02.227Z,13.24
2022-09-03T01:59:02.406Z,13.24
2022-09-03T02:00:02.215Z,13.24
2022-09-03T02:01:02.212Z,13.25
2022-09-03T02:02:02.266Z,13.25
2022-09-03T02:03:02.202Z,13.24
2022-09-03T02:04:02.211Z,13.22
2022-09-03T02:05:02.163Z,13.20
2022-09-03T02:06:02.190Z,13.20
2022-09-03T02:07:02.159Z,13.18
2022-09-03T02:08:02.192Z,13.17
2022-09-03T02:09:02.161Z,13.15
2022-09-03T02:10:02.254Z,13.14
2022-09-03T02:11:02.121Z,13.14
2022-09-03T02:12:02.123Z,13.17
2022-09-03T02:13:02.098Z,13.17
2022-09-03T02:14:02.106Z,13.17
2022-09-03T02:15:02.090Z,13.21
2022-09-03T02:16:02.145Z,13.21
2022-09-03T02:17:02.122Z,13.21
2022-09-03T02:18:02.076Z,13.22
2022-09-03T02:19:02.038Z,13.22
2022-09-03T02:20:02.034Z,13.21
2022-09-03T02:21:02.071Z,13.18
2022-09-03T02:22:02.036Z,13.14
2022-09-03T02:23:02.017Z,13.15
2022-09-03T02:24:01.997Z,13.14
2022-09-03T02:25:02.015Z,13.11
2022-09-03T02:26:02.012Z,13.09
2022-09-03T02:27:01.985Z,13.04
2022-09-03T02:28:01.965Z,12.99
2022-09-03T02:29:02.098Z,12.92
2022-09-03T02:30:01.946Z,12.88
2022-09-03T02:31:02.016Z,12.82
2022-09-03T02:32:01.971Z,12.81
2022-09-03T02:33:01.943Z,12.78
2022-09-03T02:34:01.908Z,12.75
2022-09-03T02:35:01.903Z,12.75
2022-09-03T02:36:01.921Z,12.74
2022-09-03T02:37:01.878Z,12.74
2022-09-03T02:38:01.893Z,12.77
2022-09-03T02:39:01.854Z,12.79
2022-09-03T02:40:01.950Z,12.81
2022-09-03T02:41:01.855Z,12.81
2022-09-03T02:42:01.842Z,12.79
2022-09-03T02:43:01.828Z,12.75
2022-09-03T02:44:01.834Z,12.77
2022-09-03T02:45:01.805Z,12.75
2022-09-03T02:46:01.900Z,12.77
2022-09-03T02:47:01.796Z,12.77
2022-09-03T02:48:01.826Z,12.77
2022-09-03T02:49:01.790Z,12.74
2022-09-03T02:50:01.788Z,12.74
2022-09-03T02:51:01.757Z,12.74
2022-09-03T02:52:01.799Z,12.75
2022-09-03T02:53:01.744Z,12.78
2022-09-03T02:54:01.755Z,12.79
2022-09-03T02:55:01.752Z,12.82
2022-09-03T02:56:01.722Z,12.84
2022-09-03T02:57:01.757Z,12.85
2022-09-03T02:58:01.696Z,12.85
2022-09-03T02:59:01.698Z,12.89
2022-09-03T03:00:01.735Z,12.93
2022-09-03T03:01:01.793Z,12.96
2022-09-03T03:02:01.728Z,12.96
2022-09-03T03:03:01.710Z,12.96
2022-09-03T03:04:01.727Z,12.96
2022-09-03T03:05:02.460Z,12.93
2022-09-03T03:06:01.655Z,12.87
2022-09-03T03:07:01.663Z,12.84
2022-09-03T03:08:01.639Z,12.81
2022-09-03T03:09:01.643Z,12.77
2022-09-03T03:10:01.644Z,12.75
2022-09-03T03:11:01.625Z,12.74
2022-09-03T03:12:01.643Z,12.74
2022-09-03T03:13:01.604Z,12.74
2022-09-03T03:14:01.646Z,12.77
2022-09-03T03:15:01.545Z,12.75
2022-09-03T03:16:01.541Z,12.77
2022-09-03T03:17:01.608Z,12.81
2022-09-03T03:18:01.521Z,12.81
2022-09-03T03:19:01.525Z,12.81
2022-09-03T03:20:01.544Z,12.81
2022-09-03T03:21:01.490Z,12.81
2022-09-03T03:22:01.488Z,12.82
2022-09-03T03:23:01.473Z,12.84
2022-09-03T03:24:01.477Z,12.85
2022-09-03T03:25:01.487Z,12.85
2022-09-03T03:26:01.448Z,12.82
2022-09-03T03:27:01.440Z,12.85
2022-09-03T03:28:01.494Z,12.87
2022-09-03T03:29:01.449Z,12.87
2022-09-03T03:30:01.420Z,12.92
2022-09-03T03:31:01.462Z,12.97
2022-09-03T03:32:01.417Z,12.99
2022-09-03T03:33:01.394Z,12.99
2022-09-03T03:34:01.458Z,12.96
2022-09-03T03:35:01.363Z,12.92
2022-09-03T03:36:01.368Z,12.87
2022-09-03T03:37:01.348Z,12.84
2022-09-03T03:38:01.340Z,12.81
2022-09-03T03:39:01.381Z,12.78
2022-09-03T03:40:01.362Z,12.77
2022-09-03T03:41:01.313Z,12.74
2022-09-03T03:42:01.306Z,12.71
2022-09-03T03:43:01.289Z,12.69
2022-09-03T03:44:01.315Z,12.66
2022-09-03T03:45:01.273Z,12.62
2022-09-03T03:46:01.319Z,12.62
2022-09-03T03:47:01.284Z,12.62
2022-09-03T03:48:01.277Z,12.63
2022-09-03T03:49:01.263Z,12.63
2022-09-03T03:50:01.267Z,12.63
2022-09-03T03:51:01.222Z,12.62
2022-09-03T03:52:01.217Z,12.63
2022-09-03T03:53:01.209Z,12.63
2022-09-03T03:54:05.022Z,12.64
2022-09-03T03:55:01.195Z,12.64
2022-09-03T03:56:01.182Z,12.66
2022-09-03T03:57:01.204Z,12.67
2022-09-03T03:58:01.173Z,12.67
2022-09-03T03:59:01.170Z,12.67
2022-09-03T04:00:01.147Z,12.71
2022-09-03T04:01:01.176Z,12.78
2022-09-03T04:02:01.189Z,12.84
2022-09-03T04:03:01.120Z,12.88
2022-09-03T04:04:01.149Z,12.87
2022-09-03T04:05:01.101Z,12.87
2022-09-03T04:06:01.098Z,12.88
2022-09-03T04:07:01.030Z,12.89
2022-09-03T04:08:01.086Z,12.89
2022-09-03T04:09:01.147Z,12.87
2022-09-03T04:10:01.060Z,12.84
2022-09-03T04:11:01.055Z,12.84
2022-09-03T04:12:01.055Z,12.85
2022-09-03T04:13:01.067Z,12.87
2022-09-03T04:14:01.039Z,12.87
2022-09-03T04:15:01.027Z,12.88
2022-09-03T04:16:01.050Z,12.92
2022-09-03T04:17:01.061Z,12.95
2022-09-03T04:18:00.949Z,12.97
2022-09-03T04:19:00.991Z,12.99
2022-09-03T04:20:00.943Z,13.00
2022-09-03T04:21:01.039Z,13.00
2022-09-03T04:22:00.900Z,12.97
2022-09-03T04:23:00.890Z,12.97
2022-09-03T04:24:00.909Z,12.99
2022-09-03T04:25:00.873Z,12.99
2022-09-03T04:26:00.926Z,12.96
2022-09-03T04:27:00.862Z,12.96
2022-09-03T04:28:01.003Z,12.99
2022-09-03T04:29:00.854Z,13.00
2022-09-03T04:30:00.999Z,13.02
2022-09-03T04:31:00.887Z,13.03
2022-09-03T04:32:00.835Z,13.04
2022-09-03T04:33:00.809Z,13.06
2022-09-03T04:34:00.809Z,13.06
2022-09-03T04:35:00.802Z,13.07
2022-09-03T04:36:00.784Z,13.06
2022-09-03T04:37:00.805Z,13.04
2022-09-03T04:38:00.775Z,13.06
2022-09-03T04:39:00.780Z,13.06
2022-09-03T04:40:00.812Z,13.11
2022-09-03T04:41:00.755Z,13.11
2022-09-03T04:42:00.974Z,13.12
2022-09-03T04:43:00.721Z,13.11
2022-09-03T04:44:00.727Z,13.14
2022-09-03T04:45:00.713Z,13.17
2022-09-03T04:46:00.724Z,13.20
2022-09-03T04:47:00.818Z,13.20
2022-09-03T04:48:00.676Z,13.21
2022-09-03T04:49:00.681Z,13.21
2022-09-03T04:50:00.656Z,13.21
2022-09-03T04:51:00.653Z,13.21
2022-09-03T04:52:00.636Z,13.24
2022-09-03T04:53:04.501Z,13.24
2022-09-03T04:54:00.816Z,13.24
2022-09-03T04:55:00.616Z,13.27
2022-09-03T04:56:00.607Z,13.32
2022-09-03T04:57:00.599Z,13.37
2022-09-03T04:58:00.593Z,13.44
2022-09-03T04:59:01.510Z,13.56
2022-09-03T05:00:00.572Z,13.71
2022-09-03T05:01:00.642Z,13.87
2022-09-03T05:02:00.601Z,13.96
2022-09-03T05:03:00.566Z,14.06
2022-09-03T05:04:00.559Z,14.13
2022-09-03T05:05:00.530Z,14.21
2022-09-03T05:06:00.581Z,14.31
2022-09-03T05:07:00.523Z,14.39
2022-09-03T05:08:00.517Z,14.46
2022-09-03T05:09:01.594Z,14.44
2022-09-03T05:10:00.519Z,14.53
2022-09-03T05:11:00.546Z,14.64
2022-09-03T05:12:00.480Z,14.72
2022-09-03T05:13:00.478Z,14.80
2022-09-03T05:14:02.452Z,14.83
2022-09-03T05:15:00.497Z,14.88
2022-09-03T05:16:03.079Z,14.98
2022-09-03T05:17:00.491Z,15.02
2022-09-03T05:18:00.432Z,15.09
2022-09-03T05:19:00.418Z,15.12
2022-09-03T05:20:00.427Z,15.11
2022-09-03T05:21:00.390Z,15.03
2022-09-03T05:22:00.376Z,15.01
2022-09-03T05:23:00.400Z,14.95
2022-09-03T05:24:00.397Z,14.94
2022-09-03T05:25:00.376Z,14.91
2022-09-03T05:26:00.383Z,14.87
2022-09-03T05:27:00.341Z,14.86
2022-09-03T05:28:01.201Z,14.88
2022-09-03T05:29:05.556Z,14.90
2022-09-03T05:30:00.333Z,14.91
2022-09-03T05:31:03.613Z,14.95
2022-09-03T05:32:03.060Z,14.99
2022-09-03T05:33:05.531Z,15.02
2022-09-03T05:34:03.516Z,15.06
2022-09-03T05:35:07.023Z,15.12
2022-09-03T05:36:00.251Z,15.15
2022-09-03T05:37:00.240Z,15.21
2022-09-03T05:38:00.229Z,15.27
2022-09-03T05:39:00.251Z,15.33
2022-09-03T05:40:00.302Z,15.39
2022-09-03T05:41:00.215Z,15.46
2022-09-03T05:42:00.193Z,15.52
2022-09-03T05:43:00.203Z,15.57
2022-09-03T05:44:00.192Z,15.61
2022-09-03T05:45:00.181Z,15.66
2022-09-03T05:46:00.266Z,15.70
2022-09-03T05:47:00.156Z,15.78
2022-09-03T05:48:00.159Z,15.82
2022-09-03T05:49:00.164Z,15.84
2022-09-03T05:50:00.138Z,15.86
2022-09-03T05:51:00.119Z,15.85
2022-09-03T05:52:00.120Z,15.88
2022-09-03T05:53:00.124Z,15.86
2022-09-03T05:54:00.099Z,15.85
2022-09-03T05:55:00.109Z,15.81
2022-09-03T05:56:00.078Z,15.79
2022-09-03T05:57:00.082Z,15.76
2022-09-03T05:58:00.074Z,15.74
2022-09-03T05:59:00.075Z,15.70
2022-09-03T06:00:00.039Z,15.67
2022-09-03T06:01:00.025Z,15.66
2022-09-03T06:02:00.635Z,15.63
2022-09-03T06:03:00.175Z,15.57
2022-09-03T06:04:00.018Z,15.56
2022-09-03T06:04:59.989Z,15.52
2022-09-03T06:05:59.983Z,15.49
2022-09-03T06:06:59.995Z,15.48
2022-09-03T06:07:59.958Z,15.49
2022-09-03T06:08:59.992Z,15.48
2022-09-03T06:09:59.942Z,15.49
2022-09-03T06:10:59.938Z,15.51
2022-09-03T06:12:00.125Z,15.56
2022-09-03T06:12:59.949Z,15.61
2022-09-03T06:13:59.908Z,15.68
2022-09-03T06:14:59.913Z,15.76
2022-09-03T06:15:59.929Z,15.81
2022-09-03T06:16:59.952Z,15.82
2022-09-03T06:17:59.887Z,15.85
2022-09-03T06:18:59.937Z,15.89
2022-09-03T06:19:59.850Z,15.97
2022-09-03T06:20:59.856Z,16.04
2022-09-03T06:21:59.838Z,16.12
2022-09-03T06:22:59.832Z,16.20
2022-09-03T06:24:00.379Z,16.23
2022-09-03T06:24:59.851Z,16.30
2022-09-03T06:26:04.457Z,16.34
2022-09-03T06:26:59.800Z,16.38
2022-09-03T06:27:59.777Z,16.40
2022-09-03T06:28:59.795Z,16.44
2022-09-03T06:29:59.788Z,16.44
2022-09-03T06:30:59.767Z,16.53
2022-09-03T06:31:59.775Z,16.60
2022-09-03T06:32:59.739Z,16.74
2022-09-03T06:34:03.840Z,16.86
2022-09-03T06:34:59.736Z,16.92
2022-09-03T06:35:59.709Z,16.93
2022-09-03T06:36:59.706Z,16.95
2022-09-03T06:37:59.690Z,16.99
2022-09-03T06:38:59.702Z,17.06
2022-09-03T06:39:59.708Z,17.11
2022-09-03T06:40:59.687Z,17.11
2022-09-03T06:41:59.655Z,17.11
2022-09-03T06:42:59.653Z,17.17
2022-09-03T06:43:59.655Z,17.22
2022-09-03T06:44:59.645Z,17.29
2022-09-03T06:45:59.665Z,17.38
2022-09-03T06:46:59.612Z,17.47
2022-09-03T06:47:59.613Z,17.50
2022-09-03T06:48:59.604Z,17.59
2022-09-03T06:49:59.597Z,17.73
2022-09-03T06:50:59.576Z,17.87
2022-09-03T06:51:59.576Z,18.02
2022-09-03T06:52:59.561Z,18.13
2022-09-03T06:53:59.549Z,18.15
2022-09-03T06:54:59.562Z,18.21
2022-09-03T06:55:59.526Z,18.25
2022-09-03T06:56:59.527Z,18.34
2022-09-03T06:57:59.520Z,18.44
2022-09-03T06:58:59.505Z,18.57
2022-09-03T06:59:59.518Z,18.59
2022-09-03T07:00:59.624Z,18.64
2022-09-03T07:01:59.646Z,18.70
2022-09-03T07:02:59.495Z,18.73
2022-09-03T07:03:59.471Z,18.82
2022-09-03T07:04:59.464Z,18.87
2022-09-03T07:05:59.432Z,18.92
2022-09-03T07:06:59.434Z,18.90
2022-09-03T07:07:59.417Z,18.90
2022-09-03T07:08:59.414Z,18.87
2022-09-03T07:09:59.425Z,18.82
2022-09-03T07:10:59.393Z,18.82
2022-09-03T07:11:59.380Z,18.86
2022-09-03T07:12:59.382Z,18.86
2022-09-03T07:13:59.360Z,18.90
2022-09-03T07:14:59.355Z,18.92
2022-09-03T07:15:59.387Z,18.82
2022-09-03T07:16:59.339Z,18.77
2022-09-03T07:17:59.336Z,18.72
2022-09-03T07:18:59.322Z,18.65
2022-09-03T07:19:59.316Z,18.58
2022-09-03T07:20:59.321Z,18.57
2022-09-03T07:21:59.299Z,18.49
2022-09-03T07:22:59.284Z,18.44
2022-09-03T07:23:59.282Z,18.42
2022-09-03T07:24:59.267Z,18.43
2022-09-03T07:25:59.268Z,18.42
2022-09-03T07:26:59.251Z,18.43
2022-09-03T07:27:59.231Z,18.44
2022-09-03T07:28:59.229Z,18.44
2022-09-03T07:29:59.213Z,18.44
2022-09-03T07:30:59.210Z,18.44
2022-09-03T07:31:59.252Z,18.46
2022-09-03T07:32:59.202Z,18.46
2022-09-03T07:33:59.177Z,18.47
2022-09-03T07:34:59.175Z,18.50
2022-09-03T07:35:59.159Z,18.58
2022-09-03T07:36:59.169Z,18.65
2022-09-03T07:37:59.153Z,18.68
2022-09-03T07:38:59.150Z,18.70
2022-09-03T07:39:59.220Z,18.73
2022-09-03T07:40:59.127Z,18.77
2022-09-03T07:41:59.123Z,18.77
2022-09-03T07:42:59.112Z,18.77
2022-09-03T07:43:59.094Z,18.80
2022-09-03T07:44:59.083Z,18.83
2022-09-03T07:45:59.072Z,18.87
2022-09-03T07:46:59.180Z,18.94
2022-09-03T07:47:59.064Z,18.97
2022-09-03T07:48:59.048Z,19.01
2022-09-03T07:49:59.030Z,19.06
2022-09-03T07:50:59.031Z,19.13
2022-09-03T07:51:59.032Z,19.21
2022-09-03T07:52:59.030Z,19.28
2022-09-03T07:53:58.996Z,19.35
2022-09-03T07:54:59.139Z,19.39
2022-09-03T07:55:58.997Z,19.46
2022-09-03T07:56:58.974Z,19.47
2022-09-03T07:57:58.982Z,19.47
2022-09-03T07:58:58.957Z,19.46
2022-09-03T07:59:58.950Z,19.47
2022-09-03T08:00:58.982Z,19.46
2022-09-03T08:01:58.921Z,19.42
2022-09-03T08:02:58.943Z,19.43
2022-09-03T08:03:59.016Z,19.46
2022-09-03T08:04:58.981Z,19.43
2022-09-03T08:05:58.895Z,19.36
2022-09-03T08:06:58.893Z,19.35
2022-09-03T08:07:58.912Z,19.32
2022-09-03T08:09:04.132Z,19.33
2022-09-03T08:09:58.858Z,19.36
2022-09-03T08:10:58.846Z,19.32
2022-09-03T08:11:58.844Z,19.36
2022-09-03T08:12:58.826Z,19.43
2022-09-03T08:14:00.482Z,19.50
2022-09-03T08:14:58.810Z,19.51
2022-09-03T08:15:58.867Z,19.57
2022-09-03T08:16:58.806Z,19.69
2022-09-03T08:18:03.440Z,19.79
2022-09-03T08:18:58.827Z,19.87
2022-09-03T08:19:58.760Z,19.91
2022-09-03T08:20:58.813Z,19.90
2022-09-03T08:21:58.755Z,19.94
2022-09-03T08:22:58.742Z,19.94
2022-09-03T08:23:58.723Z,19.97
2022-09-03T08:24:58.729Z,20.02
2022-09-03T08:25:58.718Z,20.03
2022-09-03T08:26:58.702Z,20.00
2022-09-03T08:27:58.699Z,20.00
2022-09-03T08:28:58.681Z,20.06
2022-09-03T08:29:58.686Z,20.10
2022-09-03T08:30:58.702Z,20.13
2022-09-03T08:31:59.691Z,20.20
2022-09-03T08:32:58.647Z,20.25
2022-09-03T08:33:58.662Z,20.30
2022-09-03T08:34:58.635Z,20.38
2022-09-03T08:35:58.632Z,20.47
2022-09-03T08:36:58.614Z,20.61
2022-09-03T08:37:58.607Z,20.65
2022-09-03T08:38:58.593Z,20.71
2022-09-03T08:39:58.732Z,20.74
2022-09-03T08:40:58.574Z,20.74
2022-09-03T08:41:58.578Z,20.65
2022-09-03T08:42:58.560Z,20.59
2022-09-03T08:43:58.570Z,20.59
2022-09-03T08:44:58.560Z,20.61
2022-09-03T08:45:58.611Z,20.56
2022-09-03T08:46:58.575Z,20.50
2022-09-03T08:47:58.518Z,20.51
2022-09-03T08:48:58.513Z,20.59
2022-09-03T08:49:58.508Z,20.64
2022-09-03T08:50:58.480Z,20.69
2022-09-03T08:52:06.535Z,20.79
2022-09-03T08:52:58.461Z,20.80
2022-09-03T08:53:58.461Z,20.83
2022-09-03T08:54:58.481Z,20.89
2022-09-03T08:55:58.442Z,20.98
2022-09-03T08:56:58.427Z,21.08
2022-09-03T08:57:58.438Z,21.21
2022-09-03T08:58:58.454Z,21.27
2022-09-03T08:59:58.441Z,21.30
2022-09-03T09:00:58.394Z,21.35
2022-09-03T09:01:58.545Z,21.39
2022-09-03T09:02:58.459Z,21.48
2022-09-03T09:03:58.442Z,21.53
2022-09-03T09:04:58.389Z,21.56
2022-09-03T09:05:58.356Z,21.56
2022-09-03T09:06:58.378Z,21.54
2022-09-03T09:07:58.357Z,21.59
2022-09-03T09:08:58.337Z,21.66
2022-09-03T09:09:58.316Z,21.74
2022-09-03T09:10:58.314Z,21.78
2022-09-03T09:11:58.330Z,21.79
2022-09-03T09:12:58.306Z,21.81
2022-09-03T09:13:58.286Z,21.81
2022-09-03T09:14:58.330Z,21.81
2022-09-03T09:15:58.322Z,21.78
2022-09-03T09:16:58.273Z,21.71
2022-09-03T09:17:58.317Z,21.69
2022-09-03T09:18:58.225Z,21.63
2022-09-03T09:19:58.291Z,21.50
2022-09-03T09:20:58.230Z,21.51
2022-09-03T09:21:58.243Z,21.59
2022-09-03T09:22:58.195Z,21.67
2022-09-03T09:23:58.255Z,21.81
2022-09-03T09:24:58.226Z,21.91
2022-09-03T09:25:58.191Z,21.99
2022-09-03T09:26:58.161Z,22.12
2022-09-03T09:27:58.185Z,22.17
2022-09-03T09:28:58.147Z,22.27
2022-09-03T09:29:58.210Z,22.38
2022-09-03T09:30:58.197Z,22.50
2022-09-03T09:31:58.146Z,22.59
2022-09-03T09:32:58.139Z,22.71
2022-09-03T09:34:00.442Z,22.75
2022-09-03T09:34:58.098Z,22.82
2022-09-03T09:35:58.091Z,22.86
2022-09-03T09:36:58.085Z,22.75
2022-09-03T09:37:58.096Z,22.72
2022-09-03T09:38:58.059Z,22.82
2022-09-03T09:39:58.231Z,22.86
2022-09-03T09:40:58.044Z,22.67
2022-09-03T09:41:58.071Z,22.50
2022-09-03T09:42:58.025Z,22.34
2022-09-03T09:43:58.015Z,22.14
2022-09-03T09:44:58.005Z,22.09
2022-09-03T09:45:58.077Z,22.07
2022-09-03T09:46:58.020Z,22.02
2022-09-03T09:47:58.000Z,21.99
2022-09-03T09:48:57.978Z,21.97
2022-09-03T09:49:57.986Z,21.95
2022-09-03T09:50:57.988Z,22.01
2022-09-03T09:51:57.965Z,22.01
2022-09-03T09:52:59.199Z,21.90
2022-09-03T09:53:57.949Z,21.81
2022-09-03T09:54:57.928Z,21.81
2022-09-03T09:55:57.925Z,21.81
2022-09-03T09:56:57.933Z,21.83
2022-09-03T09:57:57.893Z,21.85
2022-09-03T09:58:57.948Z,21.91
2022-09-03T09:59:57.890Z,21.94
2022-09-03T10:00:57.865Z,21.95
2022-09-03T10:01:57.897Z,21.98
2022-09-03T10:02:58.000Z,21.99
2022-09-03T10:03:57.857Z,21.99
2022-09-03T10:04:57.833Z,22.04
2022-09-03T10:05:57.834Z,22.09
2022-09-03T10:06:57.847Z,22.12
2022-09-03T10:07:57.808Z,22.13
2022-09-03T10:08:57.824Z,22.13
2022-09-03T10:09:57.807Z,22.16
2022-09-03T10:10:57.803Z,22.20
2022-09-03T10:11:57.779Z,22.27
2022-09-03T10:12:57.760Z,22.29
2022-09-03T10:13:57.813Z,22.35
2022-09-03T10:14:57.764Z,22.38
2022-09-03T10:15:57.792Z,22.41
2022-09-03T10:16:57.736Z,22.41
2022-09-03T10:17:57.721Z,22.43
2022-09-03T10:18:57.744Z,22.44
2022-09-03T10:19:59.568Z,22.46
2022-09-03T10:20:57.746Z,22.43
2022-09-03T10:21:57.691Z,22.31
2022-09-03T10:22:57.739Z,22.19
2022-09-03T10:23:57.712Z,22.13
2022-09-03T10:24:57.737Z,22.06
2022-09-03T10:25:57.657Z,22.04
2022-09-03T10:26:57.636Z,21.99
2022-09-03T10:27:59.829Z,22.01
2022-09-03T10:28:57.644Z,21.99
2022-09-03T10:29:57.650Z,22.04
2022-09-03T10:30:57.669Z,22.04
2022-09-03T10:31:57.621Z,22.13
2022-09-03T10:32:57.623Z,22.19
2022-09-03T10:33:57.640Z,22.31
2022-09-03T10:34:57.567Z,22.31
2022-09-03T10:35:57.598Z,22.28
2022-09-03T10:36:57.559Z,22.29
2022-09-03T10:37:57.540Z,22.28
2022-09-03T10:38:57.582Z,22.32
2022-09-03T10:39:57.595Z,22.28
2022-09-03T10:40:57.544Z,22.27
2022-09-03T10:41:57.519Z,22.25
2022-09-03T10:42:57.499Z,22.22
2022-09-03T10:44:00.005Z,22.19
2022-09-03T10:44:57.493Z,22.19
2022-09-03T10:45:57.532Z,22.17
2022-09-03T10:46:57.479Z,22.19
2022-09-03T10:47:57.554Z,22.22
2022-09-03T10:48:57.464Z,22.20
2022-09-03T10:49:57.446Z,22.20
2022-09-03T10:50:57.449Z,22.22
2022-09-03T10:51:57.433Z,22.29
2022-09-03T10:52:57.432Z,22.27
2022-09-03T10:53:57.424Z,22.23
2022-09-03T10:54:57.475Z,22.25
2022-09-03T10:55:57.380Z,22.32
2022-09-03T10:56:57.368Z,22.38
2022-09-03T10:57:57.362Z,22.47
2022-09-03T10:58:57.381Z,22.53
2022-09-03T10:59:58.034Z,22.57
2022-09-03T11:00:57.356Z,22.67
2022-09-03T11:01:57.373Z,22.69
2022-09-03T11:02:57.382Z,22.69
2022-09-03T11:03:57.336Z,22.71
2022-09-03T11:04:57.327Z,22.67
2022-09-03T11:05:57.290Z,22.64
2022-09-03T11:06:57.293Z,22.67
2022-09-03T11:07:57.417Z,22.72
2022-09-03T11:08:57.285Z,22.74
2022-09-03T11:09:57.263Z,22.72
2022-09-03T11:10:57.284Z,22.72
2022-09-03T11:11:57.236Z,22.71
2022-09-03T11:12:57.230Z,22.59
2022-09-03T11:13:57.383Z,22.46
2022-09-03T11:15:05.740Z,22.37
2022-09-03T11:15:57.410Z,22.29
2022-09-03T11:17:05.712Z,22.23
2022-09-03T11:17:57.568Z,22.22
2022-09-03T11:18:57.193Z,22.20
2022-09-03T11:19:57.278Z,22.13
2022-09-03T11:20:57.158Z,22.13
2022-09-03T11:21:57.146Z,22.07
2022-09-03T11:22:57.134Z,22.01
2022-09-03T11:23:57.139Z,22.02
2022-09-03T11:24:57.131Z,22.10
2022-09-03T11:25:57.177Z,22.12
2022-09-03T11:26:57.117Z,22.20
2022-09-03T11:27:57.103Z,22.25
2022-09-03T11:28:57.099Z,22.23
2022-09-03T11:29:57.095Z,22.25
2022-09-03T11:30:57.095Z,22.27
2022-09-03T11:31:57.056Z,22.29
2022-09-03T11:32:57.052Z,22.31
2022-09-03T11:33:57.061Z,22.34
2022-09-03T11:34:57.042Z,22.28
2022-09-03T11:35:57.042Z,22.25
2022-09-03T11:36:57.020Z,22.22
2022-09-03T11:37:57.062Z,22.27
2022-09-03T11:38:57.057Z,22.35
2022-09-03T11:39:57.048Z,22.37
2022-09-03T11:40:56.980Z,22.38
2022-09-03T11:41:57.030Z,22.38
2022-09-03T11:42:56.958Z,22.43
2022-09-03T11:44:01.165Z,22.52
2022-09-03T11:44:56.964Z,22.60
2022-09-03T11:45:57.005Z,22.65
2022-09-03T11:46:56.936Z,22.74
2022-09-03T11:47:56.939Z,22.80
2022-09-03T11:48:56.917Z,22.75
2022-09-03T11:49:56.913Z,22.78
2022-09-03T11:50:56.889Z,22.74
2022-09-03T11:51:56.893Z,22.68
2022-09-03T11:52:56.983Z,22.60
2022-09-03T11:53:56.948Z,22.65
2022-09-03T11:54:56.856Z,22.75
2022-09-03T11:55:56.870Z,22.89
2022-09-03T11:56:56.901Z,23.02
2022-09-03T11:57:56.851Z,23.05
2022-09-03T11:58:56.847Z,23.14
2022-09-03T11:59:56.830Z,23.24
2022-09-03T12:00:56.822Z,23.31
2022-09-03T12:01:56.795Z,23.39
2022-09-03T12:02:59.013Z,23.43
2022-09-03T12:03:56.826Z,23.49
2022-09-03T12:04:56.843Z,23.61
2022-09-03T12:05:56.836Z,23.70
2022-09-03T12:06:56.792Z,23.79
2022-09-03T12:07:56.775Z,23.72
2022-09-03T12:08:56.801Z,23.67
2022-09-03T12:09:56.734Z,23.76
2022-09-03T12:10:56.713Z,23.86
2022-09-03T12:11:56.755Z,23.86
2022-09-03T12:12:56.696Z,23.89
2022-09-03T12:13:56.703Z,23.85
2022-09-03T12:14:56.676Z,23.79
2022-09-03T12:15:56.703Z,23.60
2022-09-03T12:16:56.697Z,23.47
2022-09-03T12:17:56.678Z,23.43
2022-09-03T12:18:56.651Z,23.43
2022-09-03T12:19:56.680Z,23.40
2022-09-03T12:20:56.621Z,23.38
2022-09-03T12:21:56.617Z,23.38
2022-09-03T12:22:56.626Z,23.35
2022-09-03T12:23:58.255Z,23.39
2022-09-03T12:24:56.599Z,23.46
2022-09-03T12:25:56.592Z,23.52
2022-09-03T12:26:56.570Z,23.55
2022-09-03T12:27:56.571Z,23.52
2022-09-03T12:28:56.651Z,23.55
2022-09-03T12:29:56.563Z,23.58
2022-09-03T12:30:56.587Z,23.58
2022-09-03T12:31:56.544Z,23.60
2022-09-03T12:32:56.535Z,23.61
2022-09-03T12:33:56.547Z,23.61
2022-09-03T12:34:56.518Z,23.50
2022-09-03T12:36:00.085Z,23.47
2022-09-03T12:36:56.484Z,23.42
2022-09-03T12:38:05.301Z,23.39
2022-09-03T12:39:13.197Z,23.35
2022-09-03T12:40:11.884Z,23.32
2022-09-03T12:41:56.483Z,23.32
2022-09-03T12:43:37.304Z,23.38
2022-09-03T12:43:56.535Z,23.38
2022-09-03T12:44:56.581Z,23.34
2022-09-03T12:46:11.891Z,23.32
2022-09-03T12:47:33.423Z,23.32
2022-09-03T12:47:56.439Z,23.34
2022-09-03T12:49:56.394Z,23.46
2022-09-03T12:50:56.945Z,23.47
2022-09-03T12:51:59.739Z,23.43
2022-09-03T12:52:56.376Z,23.39
2022-09-03T12:53:56.340Z,23.34